createdAt,value
2019-05-10T00:00:36.098Z,76.10
2019-05-10T00:03:30.270Z,75.11
2019-05-10T00:06:24.684Z,74.81
2019-05-10T00:08:59.122Z,74.52
2019-05-10T00:11:48.995Z,74.73
2019-05-10T00:14:27.584Z,74.17
2019-05-10T00:17:04.451Z,75.89
2019-05-10T00:19:39.659Z,76.19
2019-05-10T00:22:15.083Z,75.48
2019-05-10T00:25:03.302Z,74.60
2019-05-10T00:27:28.839Z,74.35
2019-05-10T00:30:05.842Z,74.14
2019-05-10T00:32:47.164Z,73.55
2019-05-10T00:35:22.433Z,73.69
2019-05-10T00:37:57.894Z,73.38
2019-05-10T00:40:33.930Z,73.17
2019-05-10T00:43:11.434Z,73.62
2019-05-10T00:45:48.679Z,75.53
2019-05-10T00:48:24.989Z,75.76
2019-05-10T00:51:00.280Z,76.09
2019-05-10T00:53:38.549Z,75.83
2019-05-10T00:56:14.975Z,76.43
2019-05-10T00:58:50.676Z,76.25
2019-05-10T01:01:25.763Z,76.21
2019-05-10T01:04:01.030Z,76.14
2019-05-10T01:06:39.425Z,76.03
2019-05-10T01:09:14.851Z,76.02
2019-05-10T01:11:50.141Z,76.12
2019-05-10T01:14:25.332Z,76.11
2019-05-10T01:17:01.002Z,75.71
2019-05-10T01:19:36.505Z,74.80
2019-05-10T01:22:11.711Z,74.30
2019-05-10T01:24:48.970Z,74.45
2019-05-10T01:27:25.160Z,74.44
2019-05-10T01:30:00.709Z,74.36
2019-05-10T01:32:37.201Z,74.34
2019-05-10T01:35:13.665Z,74.28
2019-05-10T01:37:49.712Z,73.51
2019-05-10T01:40:26.360Z,73.60
2019-05-10T01:43:02.693Z,73.77
2019-05-10T01:45:41.135Z,74.28
2019-05-10T01:48:17.423Z,74.28
2019-05-10T01:50:52.695Z,74.30
2019-05-10T01:53:28.845Z,73.77
2019-05-10T01:56:05.145Z,73.54
2019-05-10T01:58:40.245Z,73.61
2019-05-10T02:01:17.139Z,73.50
2019-05-10T02:03:52.510Z,72.86
2019-05-10T02:06:33.011Z,71.69
2019-05-10T02:09:09.352Z,71.71
2019-05-10T02:11:45.755Z,71.28
2019-05-10T02:14:22.013Z,70.84
2019-05-10T02:16:57.867Z,69.98
2019-05-10T02:19:33.006Z,67.46
2019-05-10T02:22:08.290Z,67.23
2019-05-10T02:24:44.300Z,67.66
2019-05-10T02:27:19.547Z,66.68
2019-05-10T02:29:55.611Z,65.85
2019-05-10T02:32:30.738Z,66.09
2019-05-10T02:35:07.419Z,65.67
2019-05-10T02:37:42.563Z,65.14
2019-05-10T02:40:18.158Z,64.96
2019-05-10T02:42:53.397Z,64.67
2019-05-10T02:45:28.488Z,64.73
2019-05-10T02:48:03.871Z,65.91
2019-05-10T02:50:39.928Z,66.53
2019-05-10T02:53:15.752Z,71.25
2019-05-10T02:55:51.456Z,72.55
2019-05-10T02:58:27.974Z,73.30
2019-05-10T03:01:05.478Z,75.24
2019-05-10T03:03:44.843Z,75.83
2019-05-10T03:06:20.900Z,77.29
2019-05-10T03:08:56.206Z,74.02
2019-05-10T03:11:39.719Z,74.32
2019-05-10T03:14:18.099Z,75.35
2019-05-10T03:16:53.787Z,76.63
2019-05-10T03:19:30.435Z,74.31
2019-05-10T03:22:07.128Z,77.37
2019-05-10T03:24:42.319Z,75.56
2019-05-10T03:27:17.421Z,76.04
2019-05-10T03:29:52.838Z,76.94
2019-05-10T03:32:27.989Z,74.43
2019-05-10T03:35:03.561Z,78.27
2019-05-10T03:37:38.669Z,77.45
2019-05-10T03:40:13.876Z,78.07
2019-05-10T03:42:49.096Z,78.53
2019-05-10T03:45:28.420Z,79.09
2019-05-10T03:48:04.654Z,78.56
2019-05-10T03:50:39.788Z,78.40
2019-05-10T03:53:15.040Z,78.75
2019-05-10T03:55:51.501Z,78.52
2019-05-10T03:58:26.657Z,79.60
2019-05-10T04:01:04.946Z,79.60
2019-05-10T04:03:46.398Z,80.72
2019-05-10T04:06:22.161Z,78.46
2019-05-10T04:08:57.263Z,78.19
2019-05-10T04:11:36.109Z,76.85
2019-05-10T04:14:11.186Z,76.25
2019-05-10T04:16:48.959Z,75.12
2019-05-10T04:19:24.051Z,74.98
2019-05-10T04:21:59.418Z,74.44
2019-05-10T04:24:36.680Z,74.35
2019-05-10T04:27:30.246Z,73.56
2019-05-10T04:29:48.940Z,73.23
2019-05-10T04:32:24.420Z,73.51
2019-05-10T04:34:59.737Z,73.37
2019-05-10T04:37:35.780Z,74.94
2019-05-10T04:40:11.000Z,73.89
2019-05-10T04:42:46.482Z,73.49
2019-05-10T04:45:21.789Z,73.24
2019-05-10T04:47:56.855Z,74.45
2019-05-10T04:50:32.276Z,73.70
2019-05-10T04:53:07.396Z,73.18
2019-05-10T04:55:42.964Z,72.40
2019-05-10T04:58:19.288Z,72.21
2019-05-10T05:00:54.466Z,72.24
2019-05-10T05:03:29.629Z,71.68
2019-05-10T05:06:05.484Z,71.51
2019-05-10T05:08:41.128Z,71.69
2019-05-10T05:11:16.224Z,71.25
2019-05-10T05:13:51.672Z,70.78
2019-05-10T05:16:26.779Z,69.94
2019-05-10T05:19:02.221Z,69.66
2019-05-10T05:21:38.862Z,67.95
2019-05-10T05:24:23.030Z,67.72
2019-05-10T05:26:55.225Z,67.64
2019-05-10T05:29:30.401Z,67.29
2019-05-10T05:32:05.585Z,67.29
2019-05-10T05:34:40.934Z,66.95
2019-05-10T05:37:16.416Z,66.72
2019-05-10T05:39:53.895Z,66.75
2019-05-10T05:42:29.469Z,66.21
2019-05-10T05:45:09.705Z,66.45
2019-05-10T05:47:45.124Z,66.26
2019-05-10T05:50:21.307Z,66.65
2019-05-10T05:52:56.478Z,65.76
2019-05-10T05:55:33.694Z,65.38
2019-05-10T05:58:24.119Z,64.78
2019-05-10T06:00:46.964Z,64.84
2019-05-10T06:03:27.604Z,64.28
2019-05-10T06:06:00.387Z,64.21
2019-05-10T06:08:37.278Z,64.15
2019-05-10T06:11:14.267Z,63.81
2019-05-10T06:13:50.326Z,63.45
2019-05-10T06:16:25.669Z,63.16
2019-05-10T06:19:00.757Z,63.01
2019-05-10T06:21:38.288Z,63.46
2019-05-10T06:24:15.856Z,63.55
2019-05-10T06:26:58.332Z,62.67
2019-05-10T06:29:31.385Z,62.77
2019-05-10T06:32:09.136Z,62.07
2019-05-10T06:34:44.956Z,61.70
2019-05-10T06:37:20.276Z,62.06
2019-05-10T06:39:55.384Z,61.60
2019-05-10T06:42:34.612Z,61.72
2019-05-10T06:45:14.786Z,61.58
2019-05-10T06:47:49.720Z,61.44
2019-05-10T06:50:30.399Z,61.81
2019-05-10T06:53:07.867Z,61.68
2019-05-10T06:55:40.343Z,60.85
2019-05-10T06:58:17.765Z,61.02
2019-05-10T07:00:52.942Z,60.87
2019-05-10T07:03:29.320Z,60.60
2019-05-10T07:06:04.809Z,59.64
2019-05-10T07:08:44.338Z,58.94
2019-05-10T07:11:19.187Z,59.19
2019-05-10T07:13:54.375Z,58.73
2019-05-10T07:16:29.669Z,58.07
2019-05-10T07:19:04.939Z,57.57
2019-05-10T07:21:44.734Z,56.71
2019-05-10T07:24:25.028Z,55.70
2019-05-10T07:27:02.107Z,55.44
2019-05-10T07:29:41.900Z,54.46
2019-05-10T07:32:16.416Z,53.15
2019-05-10T07:34:58.621Z,52.35
2019-05-10T07:37:26.766Z,49.88
2019-05-10T07:40:06.491Z,48.72
2019-05-10T07:42:45.470Z,49.16
2019-05-10T07:45:25.566Z,49.62
2019-05-10T07:47:56.474Z,49.67
2019-05-10T07:50:31.619Z,50.43
2019-05-10T07:53:07.715Z,51.19
2019-05-10T07:55:42.868Z,52.52
2019-05-10T07:58:18.031Z,53.70
2019-05-10T08:00:56.240Z,54.38
2019-05-10T08:03:35.668Z,55.24
2019-05-10T08:06:09.698Z,54.50
2019-05-10T08:08:44.981Z,54.62
2019-05-10T08:11:20.453Z,54.28
2019-05-10T08:13:59.768Z,53.66
2019-05-10T08:16:33.322Z,53.09
2019-05-10T08:19:08.626Z,52.48
2019-05-10T08:21:43.759Z,51.23
2019-05-10T08:24:22.235Z,50.62
2019-05-10T08:27:09.889Z,48.25
2019-05-10T08:29:36.273Z,46.37
2019-05-10T08:32:12.931Z,44.67
2019-05-10T08:34:55.815Z,42.00
2019-05-10T08:37:37.409Z,40.80
2019-05-10T08:40:08.084Z,41.75
2019-05-10T08:42:48.131Z,42.62
2019-05-10T08:45:22.570Z,43.00
2019-05-10T08:48:00.580Z,43.63
2019-05-10T08:50:50.796Z,44.90
2019-05-10T08:53:19.763Z,45.98
2019-05-10T08:55:58.633Z,46.94
2019-05-10T08:58:38.097Z,47.44
2019-05-10T09:01:26.781Z,47.01
2019-05-10T09:04:00.859Z,48.24
2019-05-10T09:06:35.544Z,48.90
2019-05-10T09:09:12.598Z,48.58
2019-05-10T09:11:48.788Z,47.06
2019-05-10T09:14:24.291Z,46.57
2019-05-10T09:17:04.429Z,46.36
2019-05-10T09:19:41.883Z,46.98
2019-05-10T09:22:18.478Z,48.36
2019-05-10T09:24:57.993Z,49.33
2019-05-10T09:27:33.486Z,48.53
2019-05-10T09:30:14.067Z,50.59
2019-05-10T09:32:45.943Z,50.42
2019-05-10T09:35:22.587Z,49.74
2019-05-10T09:38:08.643Z,49.93
2019-05-10T09:40:51.267Z,49.66
2019-05-10T09:43:24.258Z,48.45
2019-05-10T09:45:58.513Z,47.21
2019-05-10T09:48:33.646Z,46.26
2019-05-10T09:51:09.221Z,46.13
2019-05-10T09:53:49.800Z,45.44
2019-05-10T09:56:27.484Z,45.60
2019-05-10T09:59:02.817Z,46.23
2019-05-10T10:01:37.940Z,46.86
2019-05-10T10:04:13.241Z,48.00
2019-05-10T10:06:52.578Z,47.85
2019-05-10T10:09:33.903Z,49.10
2019-05-10T10:12:03.419Z,49.83
2019-05-10T10:14:43.231Z,51.15
2019-05-10T10:17:27.487Z,51.67
2019-05-10T10:20:09.593Z,52.00
2019-05-10T10:22:52.675Z,53.05
2019-05-10T10:25:35.139Z,53.18
2019-05-10T10:28:16.758Z,52.61
2019-05-10T10:30:50.348Z,52.15
2019-05-10T10:33:28.068Z,52.18
2019-05-10T10:36:04.580Z,51.37
2019-05-10T10:38:45.194Z,51.95
2019-05-10T10:41:17.104Z,51.82
2019-05-10T10:43:53.030Z,51.73
2019-05-10T10:46:28.344Z,51.71
2019-05-10T10:49:05.523Z,51.00
2019-05-10T10:51:40.530Z,49.57
2019-05-10T10:54:17.657Z,48.16
2019-05-10T10:56:53.105Z,46.34
2019-05-10T10:59:29.268Z,45.90
2019-05-10T11:02:30.890Z,45.81
2019-05-10T11:04:48.970Z,46.24
2019-05-10T11:07:35.288Z,45.65
2019-05-10T11:10:18.059Z,44.87
2019-05-10T11:12:51.337Z,44.76
2019-05-10T11:15:28.999Z,44.11
2019-05-10T11:18:05.782Z,41.41
2019-05-10T11:20:49.524Z,37.88
2019-05-10T11:23:24.624Z,36.87
2019-05-10T11:25:57.195Z,36.54
2019-05-10T11:28:38.694Z,35.82
2019-05-10T11:31:11.381Z,36.36
2019-05-10T11:33:56.828Z,38.45
2019-05-10T11:36:24.908Z,38.09
2019-05-10T11:39:01.634Z,37.72
2019-05-10T11:41:38.141Z,37.69
2019-05-10T11:44:13.813Z,38.51
2019-05-10T11:46:50.821Z,39.13
2019-05-10T11:49:25.956Z,40.02
2019-05-10T11:52:01.821Z,41.37
2019-05-10T11:54:41.724Z,40.35
2019-05-10T11:57:17.993Z,41.17
2019-05-10T11:59:58.842Z,40.64
2019-05-10T12:02:38.255Z,41.08
2019-05-10T12:05:19.846Z,39.42
2019-05-10T12:07:54.195Z,37.76
2019-05-10T12:10:28.615Z,35.46
2019-05-10T12:13:14.841Z,31.65
2019-05-10T12:15:43.228Z,29.64
2019-05-10T12:21:09.022Z,32.54
2019-05-10T12:23:49.981Z,33.00
2019-05-10T12:26:06.532Z,30.55
2019-05-10T12:29:02.192Z,30.20
2019-05-10T12:31:35.083Z,30.77
2019-05-10T12:34:14.439Z,32.80
2019-05-10T12:36:48.925Z,34.59
2019-05-10T12:39:27.035Z,37.49
2019-05-10T12:42:05.470Z,40.06
2019-05-10T12:44:46.311Z,42.39
2019-05-10T12:47:21.683Z,44.20
2019-05-10T12:50:08.517Z,43.89
2019-05-10T12:52:50.365Z,43.87
2019-05-10T12:55:21.563Z,44.04
2019-05-10T12:57:58.274Z,43.28
2019-05-10T13:00:33.696Z,43.88
2019-05-10T13:03:12.861Z,43.94
2019-05-10T13:05:52.503Z,44.26
2019-05-10T13:08:23.733Z,44.11
2019-05-10T13:11:02.798Z,44.40
2019-05-10T13:13:39.609Z,45.64
2019-05-10T13:16:14.923Z,46.21
2019-05-10T13:18:52.607Z,47.56
2019-05-10T13:21:30.486Z,47.26
2019-05-10T13:24:06.069Z,47.73
2019-05-10T13:26:41.335Z,47.81
2019-05-10T13:29:18.847Z,47.26
2019-05-10T13:31:56.747Z,46.17
2019-05-10T13:34:33.088Z,46.39
2019-05-10T13:37:13.550Z,46.08
2019-05-10T13:39:48.188Z,46.34
2019-05-10T13:42:23.473Z,46.01
2019-05-10T13:45:01.524Z,46.22
2019-05-10T13:47:36.854Z,46.08
2019-05-10T13:50:12.734Z,45.77
2019-05-10T13:52:51.811Z,45.45
2019-05-10T13:55:29.711Z,45.25
2019-05-10T13:58:08.864Z,45.16
2019-05-10T14:00:45.483Z,45.29
2019-05-10T14:03:42.951Z,45.70
2019-05-10T14:06:09.120Z,45.55
2019-05-10T14:08:53.066Z,45.67
2019-05-10T14:11:33.930Z,45.38
2019-05-10T14:14:14.438Z,45.09
2019-05-10T14:16:48.059Z,45.19
2019-05-10T14:19:26.284Z,44.71
2019-05-10T14:22:02.075Z,44.09
2019-05-10T14:24:38.799Z,42.10
2019-05-10T14:27:15.467Z,41.53
2019-05-10T14:29:52.373Z,41.36
2019-05-10T14:32:27.788Z,41.23
2019-05-10T14:35:05.636Z,41.48
2019-05-10T14:37:43.099Z,41.52
2019-05-10T14:40:27.598Z,41.94
2019-05-10T14:43:59.462Z,40.75
2019-05-10T14:47:29.663Z,40.51
2019-05-10T14:50:06.642Z,36.21
2019-05-10T14:52:42.797Z,36.80
2019-05-10T15:05:29.101Z,37.79
2019-05-10T15:08:05.552Z,39.18
2019-05-10T15:10:41.805Z,40.40
2019-05-10T15:13:25.872Z,41.46
2019-05-10T15:15:58.481Z,42.32
2019-05-10T15:18:36.034Z,43.10
2019-05-10T15:21:12.961Z,44.15
2019-05-10T15:23:48.180Z,44.24
2019-05-10T15:26:23.621Z,43.99
2019-05-10T15:29:00.426Z,43.78
2019-05-10T15:31:37.308Z,42.71
2019-05-10T15:34:12.654Z,41.51
2019-05-10T15:36:48.032Z,42.06
2019-05-10T15:39:28.664Z,41.73
2019-05-10T15:42:04.459Z,42.46
2019-05-10T15:44:41.541Z,43.92
2019-05-10T15:47:20.614Z,44.52
2019-05-10T15:49:54.560Z,44.97
2019-05-10T15:52:30.900Z,45.08
2019-05-10T15:55:08.019Z,44.68
2019-05-10T15:57:44.179Z,44.54
2019-05-10T16:00:25.251Z,44.65
2019-05-10T16:02:59.965Z,42.63
2019-05-10T16:05:43.719Z,40.94
2019-05-10T16:08:24.108Z,39.32
2019-05-10T16:10:58.673Z,36.96
2019-05-10T16:16:53.654Z,35.23
2019-05-10T16:19:43.662Z,35.23
2019-05-10T16:22:25.186Z,35.88
2019-05-10T16:25:02.458Z,39.07
2019-05-10T16:27:44.992Z,39.73
2019-05-10T16:30:22.953Z,39.82
2019-05-10T16:32:58.645Z,42.49
2019-05-10T16:35:38.712Z,44.25
2019-05-10T16:38:14.922Z,41.82
2019-05-10T16:41:02.317Z,40.82
2019-05-10T16:43:38.783Z,41.04
2019-05-10T16:46:15.823Z,41.55
2019-05-10T16:48:55.892Z,42.71
2019-05-10T16:51:32.268Z,41.09
2019-05-10T16:54:25.065Z,39.44
2019-05-10T16:57:01.448Z,38.26
2019-05-10T17:02:47.570Z,36.44
2019-05-10T17:05:24.910Z,36.39
2019-05-10T17:08:01.753Z,37.20
2019-05-10T17:11:11.967Z,37.65
2019-05-10T17:14:37.538Z,38.38
2019-05-10T17:16:58.484Z,39.09
2019-05-10T17:19:34.071Z,39.15
2019-05-10T17:22:12.382Z,39.47
2019-05-10T17:24:48.658Z,40.24
2019-05-10T17:27:24.782Z,41.73
2019-05-10T17:30:03.707Z,43.64
2019-05-10T17:32:39.157Z,45.79
2019-05-10T17:35:15.386Z,46.71
2019-05-10T17:37:53.049Z,47.98
2019-05-10T17:40:33.792Z,48.93
2019-05-10T17:43:20.787Z,49.75
2019-05-10T17:45:49.134Z,50.98
2019-05-10T17:48:26.293Z,51.27
2019-05-10T17:51:02.037Z,51.51
2019-05-10T17:53:38.531Z,52.23
2019-05-10T17:56:13.920Z,53.32
2019-05-10T17:58:54.135Z,53.28
2019-05-10T18:01:30.970Z,54.08
2019-05-10T18:04:07.781Z,54.08
2019-05-10T18:06:45.136Z,54.09
2019-05-10T18:09:28.644Z,55.11
2019-05-10T18:12:06.722Z,55.43
2019-05-10T18:14:43.855Z,55.46
2019-05-10T18:17:20.703Z,55.83
2019-05-10T18:20:03.795Z,55.75
2019-05-10T18:22:43.246Z,56.14
2019-05-10T18:25:22.365Z,56.64
2019-05-10T18:28:03.307Z,57.24
2019-05-10T18:30:39.934Z,57.39
2019-05-10T18:33:21.536Z,58.14
2019-05-10T18:35:58.981Z,58.30
2019-05-10T18:38:39.026Z,57.99
2019-05-10T18:41:16.026Z,57.66
2019-05-10T18:46:51.598Z,58.60
2019-05-10T18:49:28.038Z,58.10
2019-05-10T18:52:06.611Z,58.14
2019-05-10T18:54:44.304Z,58.82
2019-05-10T18:57:21.042Z,59.70
2019-05-10T18:59:57.735Z,59.84
2019-05-10T19:05:35.338Z,60.51
2019-05-10T19:08:15.076Z,59.81
2019-05-10T19:10:50.396Z,60.15
2019-05-10T19:13:27.246Z,60.53
2019-05-10T19:16:06.908Z,60.36
2019-05-10T19:18:43.411Z,60.28
2019-05-10T19:21:25.040Z,60.52
2019-05-10T19:24:01.168Z,60.85
2019-05-10T19:26:36.869Z,60.74
2019-05-10T19:29:12.415Z,60.74
2019-05-10T19:31:48.497Z,61.03
2019-05-10T19:34:26.907Z,61.38
2019-05-10T19:37:04.004Z,61.78
2019-05-10T19:39:39.582Z,62.29
2019-05-10T19:42:16.265Z,62.08
2019-05-10T19:44:52.636Z,62.39
2019-05-10T19:47:28.716Z,62.68
2019-05-10T19:50:07.029Z,62.93
2019-05-10T19:52:43.188Z,63.14
2019-05-10T19:55:21.666Z,63.03
2019-05-10T19:57:56.616Z,63.99
2019-05-10T20:00:32.251Z,63.64
2019-05-10T20:03:07.669Z,63.86
2019-05-10T20:05:43.118Z,64.18
2019-05-10T20:08:18.880Z,64.05
2019-05-10T20:10:54.021Z,63.95
2019-05-10T20:13:30.124Z,63.73
2019-05-10T20:16:05.269Z,64.04
2019-05-10T20:18:40.395Z,63.94
2019-05-10T20:21:15.897Z,63.53
2019-05-10T20:23:51.081Z,62.93
2019-05-10T20:26:28.316Z,62.23
2019-05-10T20:29:05.557Z,61.67
2019-05-10T20:31:42.122Z,62.07
2019-05-10T20:34:17.713Z,62.70
2019-05-10T20:36:54.104Z,62.63
2019-05-10T20:39:29.638Z,62.66
2019-05-10T20:42:05.323Z,62.62
2019-05-10T20:44:41.781Z,62.59
2019-05-10T20:47:18.744Z,62.84
2019-05-10T20:49:54.415Z,62.51
2019-05-10T20:52:29.679Z,63.02
2019-05-10T20:55:05.652Z,62.70
2019-05-10T20:57:41.968Z,62.63
2019-05-10T21:00:17.579Z,63.15
2019-05-10T21:02:52.670Z,63.26
2019-05-10T21:05:28.209Z,63.69
2019-05-10T21:08:16.063Z,64.06
2019-05-10T21:10:40.536Z,63.80
2019-05-10T21:13:15.725Z,64.62
2019-05-10T21:15:51.233Z,63.71
2019-05-10T21:18:27.083Z,64.67
2019-05-10T21:21:02.510Z,63.79
2019-05-10T21:23:44.001Z,63.02
2019-05-10T21:26:19.341Z,63.39
2019-05-10T21:28:54.821Z,64.17
2019-05-10T21:31:31.144Z,63.54
2019-05-10T21:34:09.738Z,63.77
2019-05-10T21:36:43.674Z,63.84
2019-05-10T21:39:18.745Z,63.89
2019-05-10T21:41:54.264Z,64.11
2019-05-10T21:44:29.638Z,64.27
2019-05-10T21:47:04.905Z,64.66
2019-05-10T21:49:40.206Z,65.17
2019-05-10T21:52:15.508Z,65.00
2019-05-10T21:54:51.816Z,65.16
2019-05-10T21:57:27.055Z,67.57
2019-05-10T22:00:02.271Z,66.03
2019-05-10T22:02:45.682Z,67.33
2019-05-10T22:05:21.001Z,65.64
2019-05-10T22:07:56.146Z,65.31
2019-05-10T22:10:31.509Z,65.75
2019-05-10T22:13:06.994Z,66.24
2019-05-10T22:15:42.149Z,66.52
2019-05-10T22:18:17.632Z,66.84
2019-05-10T22:20:52.957Z,67.26
2019-05-10T22:23:28.434Z,67.64
2019-05-10T22:26:03.576Z,67.63
2019-05-10T22:28:38.750Z,67.74
2019-05-10T22:31:13.878Z,67.66
2019-05-10T22:33:49.512Z,67.86
2019-05-10T22:36:25.686Z,68.00
2019-05-10T22:39:07.060Z,67.93
2019-05-10T22:41:39.642Z,68.18
2019-05-10T22:44:14.755Z,68.02
2019-05-10T22:46:51.540Z,68.25
2019-05-10T22:49:27.644Z,68.57
2019-05-10T22:52:03.021Z,68.73
2019-05-10T22:54:38.203Z,69.21
2019-05-10T22:57:13.441Z,69.14
2019-05-10T22:59:48.693Z,69.68
2019-05-10T23:02:24.850Z,69.67
2019-05-10T23:05:00.173Z,70.06
2019-05-10T23:07:35.313Z,70.09
2019-05-10T23:10:10.601Z,70.25
2019-05-10T23:12:46.158Z,70.43
2019-05-10T23:15:21.521Z,70.46
2019-05-10T23:17:56.970Z,70.46
2019-05-10T23:20:33.594Z,70.67
2019-05-10T23:23:10.689Z,70.40
2019-05-10T23:25:46.130Z,70.28
2019-05-10T23:28:21.937Z,70.48
2019-05-10T23:30:57.306Z,70.69
2019-05-10T23:33:32.529Z,70.62
2019-05-10T23:36:08.563Z,70.28
2019-05-10T23:38:43.813Z,70.16
2019-05-10T23:41:18.914Z,70.12
2019-05-10T23:43:54.170Z,69.84
2019-05-10T23:46:29.271Z,69.79
2019-05-10T23:49:04.581Z,69.49
2019-05-10T23:51:40.651Z,69.25
2019-05-10T23:54:17.231Z,69.65
2019-05-10T23:56:52.338Z,69.44
2019-05-10T23:59:29.475Z,69.55
